EGPH/EDI METAR and TAF weather

Enter ICAO airport designator
Station Type Date Time Source
EGPH METAR 2021/05/12 01:50 UTC NOAA

EGPH 120150Z 06005KT 9999 BKN048 08/07 Q1006


Station Type Date Time Source
EGPH Decoded METAR 2021/05/12 01:50 UTC NOAA

Edinburgh Airport, United Kingdom (EGPH) 55-57N 003-21W 0M
May 11, 2021 - 09:50 PM EDT / 2021.05.12 0150 UTC
Wind: from the ENE (060 degrees) at 6 MPH (5 KT):0
Visibility: greater than 7 mile(s):0
Sky conditions: mostly cloudy
Temperature: 46 F (8 C)
Dew Point: 44 F (7 C)
Relative Humidity: 93%
Pressure (altimeter): 29.71 in. Hg (1006 hPa)
ob: EGPH 120150Z 06005KT 9999 BKN048 08/07 Q1006
cycle: 2

Station Type Date Time Source
EGPH TAF 2021/05/11 22:45 UTC NOAA

TAF TAF EGPH 112238Z 1122/1218 07007KT 9999 SCT035
TEMPO 1122/1124 6000 RA
TEMPO 1200/1209 5000 BR BKN006 PROB30 1201/1209 BKN003
TEMPO 1209/1218 6000 SHRA PROB30
TEMPO 1212/1218 3000 +SHRA

Example: see airport list